Stations météo

réclame
Mon MeteoGroup
Leuchtturm Kiel, Allemagne (10044): Température de l'air & dewpoint: 09.09.2019 12:00:00 - 15.09.2019 12:00:00 (CEST)Leuchtturm Kiel, Allemagne (10044): Vitesse du vent & gusts: 09.09.2019 12:00:00 - 15.09.2019 12:00:00 (CEST)Leuchtturm Kiel, Allemagne (10044): Direction du vent: 09.09.2019 12:00:00 - 15.09.2019 12:00:00 (CEST)Leuchtturm Kiel, Allemagne (10044): reduced air pressure: 09.09.2019 12:00:00 - 15.09.2019 12:00:00 (CEST)Leuchtturm Kiel, Allemagne (10044): Ensoleillement: 09.09.2019 12:00:00 - 15.09.2019 12:00:00 (CEST)
Date & Time tt [°C] td [°C] ff [km/h] ff [knt] fx [km/h] fx [knt] dd ppp [hPa] sd [min]
15.09.2019 12:00:00 15,7 14,6 43 23 56 30 W 1016,0 0
15.09.2019 11:00:00 15,7 13,0 49 26 67 36 WSW 1015,8 3
15.09.2019 10:00:00 14,7 11,1 57 31 74 40 WSW 1015,6 1
15.09.2019 09:00:00 14,0 9,4 62 33 74 40 SW 1016,1 0
15.09.2019 08:00:00 13,7 8,4 61 33 76 41 SW 1016,4 0
15.09.2019 07:00:00 14,1 8,0 58 32 72 39 SW 1017,2 0
15.09.2019 06:00:00 14,1 8,2 56 30 67 36 SW 1018,0 0
15.09.2019 05:00:00 13,7 8,2 51 28 59 32 SW 1019,2 0
15.09.2019 04:00:00 14,1 8,8 46 25 56 31 SW 1020,6 0
15.09.2019 03:00:00 14,2 9,4 42 23 53 29 SW 1022,0 0
15.09.2019 02:00:00 14,1 9,7 40 21 47 25 SW 1022,8 0
15.09.2019 01:00:00 13,4 9,3 34 18 45 24 SW 1024,5 0
15.09.2019 00:00:00 14,3 9,8 39 21 44 24 SW 1025,4 0
14.09.2019 23:00:00 14,3 9,2 38 20 42 23 SW 1026,4 0
14.09.2019 22:00:00 14,3 8,9 34 18 37 20 SW 1027,4 0
14.09.2019 21:00:00 15,0 8,4 31 17 36 19 SW 1028,0 0
14.09.2019 20:00:00 15,3 8,8 29 16 36 19 WSW 1028,8 1
14.09.2019 19:00:00 16,1 8,2 30 16 40 21 WSW 1029,0 46
14.09.2019 18:00:00 16,5 9,0 31 17 37 20 W 1029,9 47
14.09.2019 17:00:00 16,9 7,3 28 15 34 18 WSW 1030,5 53
14.09.2019 16:00:00 16,5 7,2 23 13 29 16 W 1031,3 50
14.09.2019 15:00:00 16,7 4,9 26 14 29 16 W 1032,2 60
14.09.2019 14:00:00 16,2 8,0 18 10 27 14 W 1032,9 56
14.09.2019 13:00:00 15,6 7,7 23 13 28 15 W 1033,6 56
14.09.2019 12:00:00 15,4 7,9 23 12 27 15 W 1033,7 60
14.09.2019 11:00:00 14,9 8,2 22 12 26 14 W 1034,1 60
14.09.2019 10:00:00 14,1 9,3 19 11 24 13 WSW 1034,2 60
14.09.2019 09:00:00 12,7 9,2 19 10 27 15 WSW 1034,1 60
14.09.2019 08:00:00 11,9 9,0 21 11 26 14 WSW 1033,8 17
14.09.2019 07:00:00 12,9 8,5 20 11 25 14 W 1033,7 0
14.09.2019 06:00:00 13,0 8,9 22 12 26 14 W 1033,5 0
14.09.2019 05:00:00 12,9 9,7 21 11 30 16 W 1033,6 0
14.09.2019 04:00:00 13,5 8,2 24 13 29 16 WNW 1033,9 0
14.09.2019 03:00:00 13,5 9,2 21 12 29 16 W 1033,9 0
14.09.2019 02:00:00 13,8 9,0 23 12 35 19 WNW 1034,0 0
14.09.2019 01:00:00 13,7 9,0 28 15 35 19 WNW 1033,8 0
14.09.2019 00:00:00 14,0 9,3 28 15 39 21 WNW 1033,8 0
13.09.2019 23:00:00 14,2 9,4 31 17 39 21 WNW 1033,3 0
13.09.2019 22:00:00 14,4 9,4 33 18 44 24 WNW 1032,8 0
13.09.2019 21:00:00 14,9 9,4 39 21 49 26 WNW 1032,5 0
13.09.2019 20:00:00 15,5 8,5 37 20 51 27 WNW 1032,1 11
13.09.2019 19:00:00 16,3 7,9 44 24 53 29 NW 1031,4 27
13.09.2019 18:00:00 16,6 8,6 37 20 54 29 WNW 1031,1 44
13.09.2019 17:00:00 17,3 7,7 41 22 50 27 NW 1030,9 60
13.09.2019 16:00:00 17,3 8,0 41 22 53 29 WNW 1030,6 60
13.09.2019 15:00:00 17,1 9,1 35 19 47 26 WNW 1030,1 60
13.09.2019 14:00:00 17,5 8,0 41 22 51 27 NW 1029,6 52
13.09.2019 13:00:00 17,6 8,1 39 21 56 30 NW 1029,0 60
13.09.2019 12:00:00 16,9 8,1 44 24 55 30 NW 1028,7 47
13.09.2019 11:00:00 16,2 9,9 48 26 58 31 NW 1028,0 45
13.09.2019 10:00:00 16,3 11,1 39 21 51 28 NNW 1026,6 53
13.09.2019 09:00:00 15,9 12,2 41 22 56 30 NNW 1025,3 13
13.09.2019 08:00:00 15,4 13,0 51 27 64 35 NW 1024,2 0
13.09.2019 07:00:00 16,2 14,8 49 26 59 32 NW 1022,4 0
13.09.2019 06:00:00 17,3 16,2 38 20 53 29 WSW 1021,3 0
13.09.2019 05:00:00 16,5 15,4 47 26 59 32 SW 1021,1 0
13.09.2019 04:00:00 16,4 14,8 48 26 62 34 SW 1021,4 0
13.09.2019 03:00:00 16,6 14,4 46 25 58 31 SW 1021,8 0
13.09.2019 02:00:00 16,8 13,5 44 24 48 26 SW 1022,5 0
13.09.2019 01:00:00 16,4 13,5 37 20 42 23 SW 1023,0 0
13.09.2019 00:00:00 16,5 13,1 36 19 47 26 SW 1023,5 0
12.09.2019 23:00:00 16,1 12,5 34 18 40 21 SW 1024,2 0
12.09.2019 22:00:00 16,3 12,7 32 17 39 21 SW 1024,2 0
12.09.2019 21:00:00 16,5 12,6 31 17 35 19 SW 1024,6 0
12.09.2019 20:00:00 17,1 11,8 32 17 41 22 WSW 1024,6 20
12.09.2019 19:00:00 17,8 11,6 37 20 52 28 WSW 1024,4 58
12.09.2019 18:00:00 18,1 12,4 31 17 43 23 W 1024,4 35
12.09.2019 17:00:00 17,8 12,6 35 19 45 24 W 1024,4 45
12.09.2019 16:00:00 18,1 12,5 37 20 49 26 W 1024,4 8
12.09.2019 15:00:00 17,8 12,9 32 17 51 28 SW 1024,4 15
12.09.2019 14:00:00 17,7 12,7 36 19 54 29 WSW 1024,3 18
12.09.2019 13:00:00 17,1 13,8 35 19 42 23 SW 1024,2 3
12.09.2019 12:00:00 16,2 14,0 34 18 41 22 SW 1024,0 0
12.09.2019 11:00:00 15,9 13,6 34 18 46 25 SW 1023,9 12
12.09.2019 10:00:00 15,6 13,6 42 23 49 27 SW 1023,0 52
12.09.2019 09:00:00 15,0 13,9 36 19 42 23 SW 1022,5 23
12.09.2019 08:00:00 14,8 13,4 35 19 41 22 SW 1022,2 1
12.09.2019 07:00:00 14,5 12,4 29 15 37 20 SW 1021,6 0
12.09.2019 06:00:00 14,5 12,3 34 19 39 21 SW 1020,9 0
12.09.2019 05:00:00 14,4 12,5 35 19 42 23 SW 1020,6 0
12.09.2019 04:00:00 14,6 13,1 36 20 40 22 SW 1020,2 0
12.09.2019 03:00:00 14,9 13,4 32 17 38 20 WSW 1019,6 0
12.09.2019 02:00:00 14,9 13,9 34 18 40 22 WSW 1019,3 0
12.09.2019 01:00:00 15,1 14,2 33 18 48 26 WSW 1018,4 0
12.09.2019 00:00:00 15,2 14,2 40 22 58 31 SW 1017,9 0
11.09.2019 23:00:00 14,6 13,6 53 29 64 35 SW 1017,1 0
11.09.2019 22:00:00 14,0 13,3 54 29 68 37 SW 1016,7 0
11.09.2019 21:00:00 14,0 13,4 53 29 74 40 SSW 1016,4 0
11.09.2019 20:00:00 14,3 13,4 60 32 77 42 SW 1016,2 0
11.09.2019 19:00:00 14,5 13,2 44 24 85 46 SW 1016,4 0
11.09.2019 18:00:00 16,1 11,4 63 34 79 43 SW 1016,3 0
11.09.2019 17:00:00 17,3 11,1 46 25 67 36 SW 1016,4 0
11.09.2019 16:00:00 17,5 11,7 48 26 66 36 SW 1016,8 0
11.09.2019 15:00:00 18,1 10,2 53 29 67 36 SW 1016,8 12
11.09.2019 14:00:00 17,9 10,2 49 26 63 34 SSW 1016,8 43
11.09.2019 13:00:00 17,4 10,0 49 26 62 33 SW 1017,3 60
11.09.2019 12:00:00 16,2 10,5 43 23 59 32 SSW 1017,4 60
11.09.2019 11:00:00 15,3 10,6 44 24 55 30 SSW 1017,7 60
11.09.2019 10:00:00 14,3 11,3 42 23 51 27 SSW 1017,8 60
11.09.2019 09:00:00 13,0 10,2 44 24 51 28 SW 1017,8 60
11.09.2019 08:00:00 12,7 10,6 39 21 46 25 SSW 1017,8 43
11.09.2019 07:00:00 13,0 11,1 37 20 43 23 SW 1017,8 0
11.09.2019 06:00:00 13,4 11,8 39 21 46 25 SW 1017,6 0
11.09.2019 05:00:00 13,2 11,9 39 21 44 24 SW 1017,7 0
11.09.2019 04:00:00 13,5 11,8 34 18 40 22 SW 1017,8 0
11.09.2019 03:00:00 13,4 11,5 33 18 38 21 SW 1017,6 0
11.09.2019 02:00:00 13,7 11,5 29 15 37 20 WSW 1017,4 0
11.09.2019 01:00:00 14,9 12,1 29 16 40 22 W 1017,0 0
11.09.2019 00:00:00 14,7 12,2 33 18 42 23 WSW 1016,8 0
10.09.2019 23:00:00 15,2 12,2 35 19 45 24 W 1016,1 0
10.09.2019 22:00:00 15,4 12,6 35 19 45 24 W 1015,7 0
10.09.2019 21:00:00 15,5 13,0 35 19 50 27 W 1015,3 0
10.09.2019 20:00:00 15,5 13,2 41 22 53 28 W 1014,5 0
10.09.2019 19:00:00 15,7 12,9 44 24 55 30 W 1014,1 0
10.09.2019 18:00:00 15,5 12,5 49 27 60 33 W 1013,6 0
10.09.2019 17:00:00 15,7 12,3 48 26 61 33 W 1012,9 0
10.09.2019 16:00:00 15,5 11,6 52 28 64 35 W 1012,5 0
10.09.2019 15:00:00 15,7 12,5 57 31 67 36 W 1011,9 1
10.09.2019 14:00:00 16,2 11,6 48 26 56 30 W 1011,8 21
10.09.2019 13:00:00 15,9 12,3 52 28 68 37 W 1011,3 21
10.09.2019 12:00:00 16,0 12,5 48 26 57 31 W 1011,2 31
10.09.2019 11:00:00 15,7 12,6 44 24 50 27 W 1011,2 1
10.09.2019 10:00:00 15,0 12,9 41 22 48 26 W 1011,1 0
10.09.2019 09:00:00 14,5 12,4 38 21 50 27 W 1010,9 0
10.09.2019 08:00:00 14,3 11,1 39 21 51 27 W 1010,6 0
10.09.2019 07:00:00 13,9 10,6 40 22 47 25 W 1010,5 0
10.09.2019 06:00:00 13,9 10,8 39 21 49 26 WNW 1010,3 0
10.09.2019 05:00:00 13,4 10,8 37 20 49 26 WNW 1010,5 0
10.09.2019 04:00:00 13,6 10,4 42 23 50 27 WNW 1010,8 0
10.09.2019 03:00:00 13,7 10,9 42 23 53 29 WNW 1010,9 0
10.09.2019 02:00:00 13,8 11,0 45 25 55 30 NW 1011,0 0
10.09.2019 01:00:00 13,6 11,9 43 23 52 28 WNW 1011,2 0
10.09.2019 00:00:00 13,7 11,9 40 21 54 29 WNW 1011,4 0
09.09.2019 23:00:00 14,1 12,1 44 24 54 29 NW 1011,5 0
09.09.2019 22:00:00 14,2 12,0 43 23 51 28 NW 1011,8 0
09.09.2019 21:00:00 14,3 11,2 40 22 47 26 NW 1012,0 0
09.09.2019 20:00:00 14,5 10,7 35 19 40 22 NNW 1012,2 0
09.09.2019 19:00:00 14,8 12,0 26 14 31 17 N 1012,2 0
09.09.2019 18:00:00 15,0 10,5 24 13 29 16 N 1012,5 0
09.09.2019 17:00:00 15,3 10,6 24 13 27 15 NNE 1012,4 0
09.09.2019 16:00:00 15,3 11,5 23 12 31 17 NNE 1012,5 0
09.09.2019 15:00:00 15,7 10,6 25 14 29 15 NE 1013,2 0
09.09.2019 14:00:00 16,1 11,8 18 10 26 14 NNE 1013,4 12
09.09.2019 13:00:00 16,3 11,2 11 6 17 9 NNE 1013,6 23
09.09.2019 12:00:00 16,4 11,7 13 7 21 11 NE 1014,0 7

tt = Température de l'air
td = dewpoint
ff = Vitesse du vent
fx = gusts
dd = Direction du vent
ppp = reduced air pressure
sd = Ensoleillement

stations d'obs. à proximité